Costa Mediterranea — IBCF — position and weather

sailwx.info

Track history (hours):
 
Tides and Currents Weather Stations Pressure Air Temp Water Temp Dewpoint Dewpoint Depression Visibility Wind Speed Wind Dir Waves Ship Positions

Costa Mediterranea

Last reported at 2017-Mar-24 06:32 UTC. Time now 2017-Mar-25 19:39 UTC.
Position N 41°13' E 002°20'.

Length 293 m; draft 8 m.

Type: Passenger vessel. MMSI: 247088200.

Date/timePositionNaut miles runAvg speedWind from/ knotsBaromVisibWave heightAir tempDewpointWater temp
2017-Mar-24 06:32N 41°13' E 002°20'1818.3
2017-Mar-24 05:33N 41°04' E 002°41'1818.3
2017-Mar-24 04:33N 40°55' E 003°02'1918.4
2017-Mar-24 03:33N 40°46' E 003°23'54515.6
2017-Mar-22 16:33N 36°26' E 013°36'1918.8
2017-Mar-22 15:33N 36°17' E 013°56'1919.4
2017-Mar-22 14:33N 36°08' E 014°18'1716.9
2017-Mar-22 13:33N 35°56' E 014°33'3 0.4
2017-Mar-22 06:30N 35°54' E 014°31'1010.7
2017-Mar-22 05:33N 36°04' E 014°29'1918.9
2017-Mar-22 04:33N 36°15' E 014°11'1918.9
2017-Mar-22 03:34N 36°26' E 013°52'1919.1
2017-Mar-22 02:34N 36°37' E 013°32'11113.8
2017-Mar-21 18:33N 38°13' E 012°22'2119.4
2017-Mar-21 17:27N 38°15' E 012°50'1718.8
2017-Mar-21 16:34N 38°16' E 013°11'1413.6
2017-Mar-21 15:34N 38°10' E 013°26'4 3.6
2017-Mar-21 14:33N 38°08' E 013°22'0 0.0
2017-Mar-21 13:33N 38°08' E 013°22'0 0.0
2017-Mar-21 12:33N 38°08' E 013°22'0 0.0
2017-Mar-21 11:33N 38°08' E 013°22'0 0.0
2017-Mar-21 10:33N 38°08' E 013°22'0 0.0
2017-Mar-21 09:33N 38°08' E 013°22'0 0.0
2017-Mar-21 08:33N 38°08' E 013°22'0 0.0
2017-Mar-21 07:33N 38°08' E 013°22'2 2.1
2017-Mar-21 06:33N 38°09' E 013°24'1514.8
2017-Mar-21 05:33N 38°23' E 013°29'1515.2
2017-Mar-21 04:34N 38°38' E 013°33'1514.8
2017-Mar-21 03:33N 38°53' E 013°38'1414.2
2017-Mar-21 02:33N 39°06' E 013°42'1414.2
2017-Mar-21 01:33N 39°20' E 013°46'1514.6
2017-Mar-21 00:33N 39°35' E 013°50'27410.1
2017-Mar-19 21:32N 42°52' E 009°37'1918.9
2017-Mar-19 20:34N 43°10' E 009°31'1918.9
2017-Mar-19 19:34N 43°26' E 009°17'1919.0
2017-Mar-19 18:34N 43°42' E 009°03'1918.5
2017-Mar-19 17:34N 43°58' E 008°49'1919.0
2017-Mar-19 16:34N 44°14' E 008°35'6 6.0
2017-Mar-19 15:31N 44°19' E 008°29'0 0.0
2017-Mar-19 14:31N 44°19' E 008°29'0 0.0
2017-Mar-19 13:31N 44°19' E 008°29'0 0.0
2017-Mar-19 12:31N 44°19' E 008°29'0 0.0
2017-Mar-19 11:31N 44°19' E 008°29'0 0.0
2017-Mar-19 10:29N 44°19' E 008°29'0 0.0
2017-Mar-19 09:32N 44°19' E 008°29'0 0.0
2017-Mar-19 08:32N 44°19' E 008°29'0 0.0
2017-Mar-19 07:33N 44°19' E 008°29'2 2.1
2017-Mar-19 06:33N 44°18' E 008°32'1211.6
2017-Mar-19 05:33N 44°07' E 008°26'3015.1
2017-Mar-19 03:33N 43°44' E 008°00'1413.6
2017-Mar-19 02:33N 43°33' E 007°48'1413.9
2017-Mar-19 01:33N 43°24' E 007°34'1414.0
2017-Mar-19 00:33N 43°15' E 007°19'9212.8
2017-Mar-18 17:21N 43°08' E 005°14'1214.6
2017-Mar-18 16:33N 43°19' E 005°16'4 0.4
2017-Mar-18 08:23N 43°21' E 005°20'0 0.0
2017-Mar-18 07:26N 43°21' E 005°20'0 0.0
2017-Mar-18 06:26N 43°21' E 005°20'5 5.6
2017-Mar-18 05:33N 43°19' E 005°14'15614.2
2017-Mar-17 18:33N 41°30' E 002°42'1514.6
2017-Mar-17 17:33N 41°21' E 002°27'1313.0
2017-Mar-17 16:33N 41°17' E 002°11'4 2.1
2017-Mar-17 14:33N 41°21' E 002°10'0 0.0
2017-Mar-17 13:33N 41°21' E 002°10'0 0.0
2017-Mar-17 12:33N 41°21' E 002°10'0 0.0
2017-Mar-17 11:23N 41°21' E 002°10'0 0.0
2017-Mar-17 10:29N 41°21' E 002°10'0 0.0
2017-Mar-17 09:32N 41°21' E 002°10'0 0.0
2017-Mar-17 08:31N 41°21' E 002°10'3 2.7
2017-Mar-17 07:33N 41°19' E 002°10'9 9.3
2017-Mar-17 06:33N 41°13' E 002°20'1818.0
2017-Mar-17 05:33N 41°04' E 002°41'1818.1
2017-Mar-17 04:33N 40°55' E 003°01'1817.9
2017-Mar-17 03:33N 40°46' E 003°22'1818.2
2017-Mar-17 02:33N 40°37' E 003°43'1817.2
2017-Mar-17 01:30N 40°28' E 004°03'1717.7
2017-Mar-17 00:33N 40°20' E 004°23'1918.6
2017-Mar-16 23:33N 40°11' E 004°44'2018.1
2017-Mar-16 22:28N 39°60' E 005°06'1816.9
2017-Mar-16 21:25N 39°52' E 005°26'16315.8
2017-Mar-16 11:07N 38°32' E 008°30'28615.4
2017-Mar-15 16:33N 36°20' E 013°50'1515.0
2017-Mar-15 15:33N 36°13' E 014°06'1515.0
2017-Mar-15 14:33N 36°05' E 014°22'1313.5
2017-Mar-15 13:33N 35°54' E 014°32'1 0.1
2017-Mar-15 06:32N 35°54' E 014°31'1010.5
2017-Mar-15 05:33N 36°04' E 014°28'1918.7
2017-Mar-15 04:33N 36°16' E 014°10'1918.9
2017-Mar-15 03:33N 36°27' E 013°51'12714.1
2017-Mar-14 18:33N 38°13' E 012°24'2519.0
2017-Mar-14 17:15N 38°15' E 012°55'1419.6
2017-Mar-14 16:33N 38°16' E 013°12'1312.6
2017-Mar-14 15:34N 38°08' E 013°25'2 2.2
2017-Mar-14 14:31N 38°08' E 013°22'0 0.0
2017-Mar-14 13:31N 38°08' E 013°22'0 0.0
2017-Mar-14 12:31N 38°08' E 013°22'0 0.0
2017-Mar-14 11:31N 38°08' E 013°22'0 0.0
2017-Mar-14 10:31N 38°08' E 013°22'0 0.0
2017-Mar-14 09:28N 38°08' E 013°22'0 0.0
2017-Mar-14 08:31N 38°08' E 013°22'0 0.0
2017-Mar-14 07:31N 38°08' E 013°22'1 1.4
2017-Mar-14 06:33N 38°07' E 013°24'  
Track history (hours):
 
Tides and Currents Weather Stations Pressure Air Temp Water Temp Dewpoint Dewpoint Depression Visibility Wind Speed Wind Dir Waves Ship Positions

Costa Mediterranea

Last reported at 2017-Mar-24 06:32 UTC. Time now 2017-Mar-25 19:39 UTC.
Position N 41°13' E 002°20'.

Length 293 m; draft 8 m.

Type: Passenger vessel. MMSI: 247088200.

Date/timePositionNaut miles runAvg speedWind from/ knotsBaromVisibWave heightAir tempDewpointWater temp
2017-Mar-24 06:32N 41°13' E 002°20'1818.3
2017-Mar-24 05:33N 41°04' E 002°41'1818.3
2017-Mar-24 04:33N 40°55' E 003°02'1918.4
2017-Mar-24 03:33N 40°46' E 003°23'54515.6
2017-Mar-22 16:33N 36°26' E 013°36'1918.8
2017-Mar-22 15:33N 36°17' E 013°56'1919.4
2017-Mar-22 14:33N 36°08' E 014°18'1716.9
2017-Mar-22 13:33N 35°56' E 014°33'3 0.4
2017-Mar-22 06:30N 35°54' E 014°31'1010.7
2017-Mar-22 05:33N 36°04' E 014°29'1918.9
2017-Mar-22 04:33N 36°15' E 014°11'1918.9
2017-Mar-22 03:34N 36°26' E 013°52'1919.1
2017-Mar-22 02:34N 36°37' E 013°32'11113.8
2017-Mar-21 18:33N 38°13' E 012°22'2119.4
2017-Mar-21 17:27N 38°15' E 012°50'1718.8
2017-Mar-21 16:34N 38°16' E 013°11'1413.6
2017-Mar-21 15:34N 38°10' E 013°26'4 3.6
2017-Mar-21 14:33N 38°08' E 013°22'0 0.0
2017-Mar-21 13:33N 38°08' E 013°22'0 0.0
2017-Mar-21 12:33N 38°08' E 013°22'0 0.0
2017-Mar-21 11:33N 38°08' E 013°22'0 0.0
2017-Mar-21 10:33N 38°08' E 013°22'0 0.0
2017-Mar-21 09:33N 38°08' E 013°22'0 0.0
2017-Mar-21 08:33N 38°08' E 013°22'0 0.0
2017-Mar-21 07:33N 38°08' E 013°22'2 2.1
2017-Mar-21 06:33N 38°09' E 013°24'1514.8
2017-Mar-21 05:33N 38°23' E 013°29'1515.2
2017-Mar-21 04:34N 38°38' E 013°33'1514.8
2017-Mar-21 03:33N 38°53' E 013°38'1414.2
2017-Mar-21 02:33N 39°06' E 013°42'1414.2
2017-Mar-21 01:33N 39°20' E 013°46'1514.6
2017-Mar-21 00:33N 39°35' E 013°50'27410.1
2017-Mar-19 21:32N 42°52' E 009°37'1918.9
2017-Mar-19 20:34N 43°10' E 009°31'1918.9
2017-Mar-19 19:34N 43°26' E 009°17'1919.0
2017-Mar-19 18:34N 43°42' E 009°03'1918.5
2017-Mar-19 17:34N 43°58' E 008°49'1919.0
2017-Mar-19 16:34N 44°14' E 008°35'6 6.0
2017-Mar-19 15:31N 44°19' E 008°29'0 0.0
2017-Mar-19 14:31N 44°19' E 008°29'0 0.0
2017-Mar-19 13:31N 44°19' E 008°29'0 0.0
2017-Mar-19 12:31N 44°19' E 008°29'0 0.0
2017-Mar-19 11:31N 44°19' E 008°29'0 0.0
2017-Mar-19 10:29N 44°19' E 008°29'0 0.0
2017-Mar-19 09:32N 44°19' E 008°29'0 0.0
2017-Mar-19 08:32N 44°19' E 008°29'0 0.0
2017-Mar-19 07:33N 44°19' E 008°29'2 2.1
2017-Mar-19 06:33N 44°18' E 008°32'1211.6
2017-Mar-19 05:33N 44°07' E 008°26'3015.1
2017-Mar-19 03:33N 43°44' E 008°00'1413.6
2017-Mar-19 02:33N 43°33' E 007°48'1413.9
2017-Mar-19 01:33N 43°24' E 007°34'1414.0
2017-Mar-19 00:33N 43°15' E 007°19'9212.8
2017-Mar-18 17:21N 43°08' E 005°14'1214.6
2017-Mar-18 16:33N 43°19' E 005°16'4 0.4
2017-Mar-18 08:23N 43°21' E 005°20'0 0.0
2017-Mar-18 07:26N 43°21' E 005°20'0 0.0
2017-Mar-18 06:26N 43°21' E 005°20'5 5.6
2017-Mar-18 05:33N 43°19' E 005°14'15614.2
2017-Mar-17 18:33N 41°30' E 002°42'1514.6
2017-Mar-17 17:33N 41°21' E 002°27'1313.0
2017-Mar-17 16:33N 41°17' E 002°11'4 2.1
2017-Mar-17 14:33N 41°21' E 002°10'0 0.0
2017-Mar-17 13:33N 41°21' E 002°10'0 0.0
2017-Mar-17 12:33N 41°21' E 002°10'0 0.0
2017-Mar-17 11:23N 41°21' E 002°10'0 0.0
2017-Mar-17 10:29N 41°21' E 002°10'0 0.0
2017-Mar-17 09:32N 41°21' E 002°10'0 0.0
2017-Mar-17 08:31N 41°21' E 002°10'3 2.7
2017-Mar-17 07:33N 41°19' E 002°10'9 9.3
2017-Mar-17 06:33N 41°13' E 002°20'1818.0
2017-Mar-17 05:33N 41°04' E 002°41'1818.1
2017-Mar-17 04:33N 40°55' E 003°01'1817.9
2017-Mar-17 03:33N 40°46' E 003°22'1818.2
2017-Mar-17 02:33N 40°37' E 003°43'1817.2
2017-Mar-17 01:30N 40°28' E 004°03'1717.7
2017-Mar-17 00:33N 40°20' E 004°23'1918.6
2017-Mar-16 23:33N 40°11' E 004°44'2018.1
2017-Mar-16 22:28N 39°60' E 005°06'1816.9
2017-Mar-16 21:25N 39°52' E 005°26'16315.8
2017-Mar-16 11:07N 38°32' E 008°30'28615.4
2017-Mar-15 16:33N 36°20' E 013°50'1515.0
2017-Mar-15 15:33N 36°13' E 014°06'1515.0
2017-Mar-15 14:33N 36°05' E 014°22'1313.5
2017-Mar-15 13:33N 35°54' E 014°32'1 0.1
2017-Mar-15 06:32N 35°54' E 014°31'1010.5
2017-Mar-15 05:33N 36°04' E 014°28'1918.7
2017-Mar-15 04:33N 36°16' E 014°10'1918.9
2017-Mar-15 03:33N 36°27' E 013°51'12714.1
2017-Mar-14 18:33N 38°13' E 012°24'2519.0
2017-Mar-14 17:15N 38°15' E 012°55'1419.6
2017-Mar-14 16:33N 38°16' E 013°12'1312.6
2017-Mar-14 15:34N 38°08' E 013°25'2 2.2
2017-Mar-14 14:31N 38°08' E 013°22'0 0.0
2017-Mar-14 13:31N 38°08' E 013°22'0 0.0
2017-Mar-14 12:31N 38°08' E 013°22'0 0.0
2017-Mar-14 11:31N 38°08' E 013°22'0 0.0
2017-Mar-14 10:31N 38°08' E 013°22'0 0.0
2017-Mar-14 09:28N 38°08' E 013°22'0 0.0
2017-Mar-14 08:31N 38°08' E 013°22'0 0.0
2017-Mar-14 07:31N 38°08' E 013°22'1 1.4
2017-Mar-14 06:33N 38°07' E 013°24'  

Dump ship's entire track history